createdAt,value
2022-08-17T00:00:52.077Z,76.17
2022-08-17T00:01:52.701Z,76.26
2022-08-17T00:02:50.808Z,77.42
2022-08-17T00:03:50.538Z,77.33
2022-08-17T00:04:50.765Z,78.29
2022-08-17T00:05:50.463Z,77.03
2022-08-17T00:06:50.419Z,76.88
2022-08-17T00:07:50.550Z,77.42
2022-08-17T00:08:50.339Z,76.84
2022-08-17T00:09:50.303Z,76.93
2022-08-17T00:10:50.272Z,76.93
2022-08-17T00:12:34.845Z,77.23
2022-08-17T00:12:50.181Z,77.33
2022-08-17T00:13:50.145Z,76.45
2022-08-17T00:14:50.102Z,76.65
2022-08-17T00:15:50.082Z,76.65
2022-08-17T00:16:51.943Z,76.36
2022-08-17T00:17:49.986Z,76.36
2022-08-17T00:19:06.512Z,76.98
2022-08-17T00:19:49.902Z,77.36
2022-08-17T00:20:49.865Z,77.07
2022-08-17T00:22:31.974Z,76.88
2022-08-17T00:22:49.975Z,76.88
2022-08-17T00:23:49.762Z,76.88
2022-08-17T00:24:49.712Z,77.46
2022-08-17T00:25:49.669Z,78.03
2022-08-17T00:26:49.626Z,78.03
2022-08-17T00:27:49.593Z,77.94
2022-08-17T00:28:49.546Z,77.84
2022-08-17T00:29:49.527Z,77.94
2022-08-17T00:30:51.468Z,78.03
2022-08-17T00:31:49.429Z,78.13
2022-08-17T00:33:11.876Z,77.26
2022-08-17T00:33:49.350Z,76.88
2022-08-17T00:34:49.312Z,77.07
2022-08-17T00:35:49.299Z,76.88
2022-08-17T00:36:49.232Z,77.17
2022-08-17T00:37:49.189Z,76.98
2022-08-17T00:38:49.149Z,76.68
2022-08-17T00:39:49.145Z,76.68
2022-08-17T00:40:49.069Z,76.50
2022-08-17T00:41:49.054Z,77.36
2022-08-17T00:42:49.173Z,77.36
2022-08-17T00:43:48.957Z,76.59
2022-08-17T00:44:48.910Z,75.82
2022-08-17T00:45:48.881Z,74.66
2022-08-17T00:46:48.831Z,75.24
2022-08-17T00:47:48.812Z,74.66
2022-08-17T00:48:48.762Z,74.85
2022-08-17T00:49:48.714Z,74.76
2022-08-17T00:50:48.673Z,74.18
2022-08-17T00:51:48.636Z,73.69
2022-08-17T00:52:48.755Z,73.41
2022-08-17T00:53:48.573Z,73.21
2022-08-17T00:54:48.512Z,72.63
2022-08-17T00:55:48.486Z,72.77
2022-08-17T00:56:48.467Z,72.73
2022-08-17T00:57:50.338Z,72.38
2022-08-17T00:58:48.356Z,72.48
2022-08-17T00:59:56.047Z,73.06
2022-08-17T01:00:48.316Z,73.15
2022-08-17T01:01:48.238Z,73.44
2022-08-17T01:02:48.223Z,73.54
2022-08-17T01:03:48.160Z,73.15
2022-08-17T01:04:48.120Z,73.44
2022-08-17T01:05:48.079Z,74.31
2022-08-17T01:06:48.042Z,73.99
2022-08-17T01:07:48.003Z,74.51
2022-08-17T01:08:47.998Z,73.79
2022-08-17T01:09:47.917Z,73.73
2022-08-17T01:10:58.588Z,73.35
2022-08-17T01:11:47.844Z,73.44
2022-08-17T01:12:47.869Z,73.35
2022-08-17T01:13:47.762Z,73.25
2022-08-17T01:14:47.738Z,73.73
2022-08-17T01:15:47.685Z,74.31
2022-08-17T01:16:47.646Z,73.54
2022-08-17T01:17:47.611Z,73.83
2022-08-17T01:18:47.598Z,73.73
2022-08-17T01:19:47.529Z,74.21
2022-08-17T01:20:48.080Z,74.41
2022-08-17T01:21:47.447Z,74.41
2022-08-17T01:22:47.412Z,74.12
2022-08-17T01:23:47.370Z,74.21
2022-08-17T01:24:47.340Z,74.31
2022-08-17T01:25:47.287Z,73.93
2022-08-17T01:26:47.248Z,73.93
2022-08-17T01:27:47.210Z,74.21
2022-08-17T01:28:54.950Z,74.02
2022-08-17T01:29:47.141Z,74.41
2022-08-17T01:30:58.120Z,74.21
2022-08-17T01:31:47.053Z,74.60
2022-08-17T01:32:47.010Z,75.27
2022-08-17T01:33:46.977Z,75.27
2022-08-17T01:34:50.466Z,75.18
2022-08-17T01:35:46.900Z,75.27
2022-08-17T01:36:46.859Z,74.21
2022-08-17T01:37:46.817Z,74.41
2022-08-17T01:38:46.779Z,73.93
2022-08-17T01:39:46.788Z,73.25
2022-08-17T01:40:46.714Z,73.44
2022-08-17T01:41:46.655Z,72.96
2022-08-17T01:42:46.664Z,72.38
2022-08-17T01:43:46.583Z,72.77
2022-08-17T01:44:46.541Z,72.67
2022-08-17T01:45:46.497Z,72.96
2022-08-17T01:46:46.473Z,72.28
2022-08-17T01:47:46.436Z,72.38
2022-08-17T01:48:46.378Z,72.67
2022-08-17T01:49:46.342Z,72.09
2022-08-17T01:50:46.303Z,71.16
2022-08-17T01:51:46.264Z,71.36
2022-08-17T01:52:46.263Z,72.32
2022-08-17T01:53:46.204Z,72.61
2022-08-17T01:54:46.147Z,73.28
2022-08-17T01:55:46.110Z,73.58
2022-08-17T01:56:47.079Z,73.28
2022-08-17T01:57:46.026Z,73.58
2022-08-17T01:58:45.986Z,73.96
2022-08-17T01:59:45.967Z,73.86
2022-08-17T02:01:00.310Z,74.02
2022-08-17T02:01:45.907Z,74.69
2022-08-17T02:02:45.944Z,74.79
2022-08-17T02:03:54.525Z,75.18
2022-08-17T02:04:45.771Z,75.85
2022-08-17T02:05:45.711Z,75.57
2022-08-17T02:06:53.249Z,75.37
2022-08-17T02:07:55.975Z,75.18
2022-08-17T02:09:01.831Z,75.85
2022-08-17T02:09:45.549Z,75.57
2022-08-17T02:10:46.870Z,75.57
2022-08-17T02:11:46.282Z,75.72
2022-08-17T02:12:45.433Z,76.34
2022-08-17T02:13:45.402Z,76.24
2022-08-17T02:14:45.355Z,76.34
2022-08-17T02:15:45.332Z,76.53
2022-08-17T02:16:45.275Z,76.34
2022-08-17T02:17:45.236Z,76.24
2022-08-17T02:18:45.210Z,76.20
2022-08-17T02:19:45.156Z,76.40
2022-08-17T02:20:45.141Z,76.30
2022-08-17T02:21:45.090Z,75.92
2022-08-17T02:22:45.039Z,76.01
2022-08-17T02:23:44.997Z,76.20
2022-08-17T02:25:00.552Z,75.92
2022-08-17T02:25:44.922Z,75.85
2022-08-17T02:26:44.888Z,75.62
2022-08-17T02:27:44.842Z,75.85
2022-08-17T02:28:44.809Z,75.47
2022-08-17T02:29:44.760Z,75.57
2022-08-17T02:31:01.946Z,75.57
2022-08-17T02:31:44.678Z,75.67
2022-08-17T02:32:44.640Z,75.57
2022-08-17T02:33:44.599Z,75.67
2022-08-17T02:34:44.588Z,75.37
2022-08-17T02:35:44.524Z,75.18
2022-08-17T02:36:44.484Z,75.67
2022-08-17T02:37:44.441Z,75.95
2022-08-17T02:38:44.407Z,74.89
2022-08-17T02:39:44.392Z,75.18
2022-08-17T02:40:44.339Z,75.47
2022-08-17T02:41:44.286Z,75.57
2022-08-17T02:42:44.249Z,76.05
2022-08-17T02:43:44.209Z,75.47
2022-08-17T02:44:44.166Z,75.47
2022-08-17T02:45:44.136Z,75.67
2022-08-17T02:46:44.084Z,74.99
2022-08-17T02:47:44.045Z,75.27
2022-08-17T02:48:44.008Z,75.27
2022-08-17T02:49:54.126Z,75.47
2022-08-17T02:50:43.939Z,75.27
2022-08-17T02:51:43.893Z,74.99
2022-08-17T02:52:44.166Z,75.37
2022-08-17T02:53:43.806Z,76.05
2022-08-17T02:54:43.771Z,75.85
2022-08-17T02:55:43.731Z,76.24
2022-08-17T02:56:43.703Z,76.24
2022-08-17T02:57:43.650Z,76.05
2022-08-17T02:58:46.423Z,76.43
2022-08-17T02:59:48.790Z,76.24
2022-08-17T03:00:43.536Z,76.30
2022-08-17T03:01:43.581Z,76.20
2022-08-17T03:02:43.477Z,76.30
2022-08-17T03:03:43.413Z,76.59
2022-08-17T03:04:43.378Z,76.40
2022-08-17T03:05:43.365Z,76.40
2022-08-17T03:06:43.297Z,76.68
2022-08-17T03:07:43.256Z,77.17
2022-08-17T03:08:43.216Z,76.40
2022-08-17T03:09:43.174Z,76.78
2022-08-17T03:10:43.136Z,77.17
2022-08-17T03:11:43.119Z,77.84
2022-08-17T03:12:43.080Z,77.81
2022-08-17T03:13:43.016Z,78.33
2022-08-17T03:14:42.981Z,77.75
2022-08-17T03:15:43.851Z,78.29
2022-08-17T03:16:42.897Z,78.29
2022-08-17T03:17:42.859Z,77.90
2022-08-17T03:18:42.823Z,77.81
2022-08-17T03:19:43.025Z,78.29
2022-08-17T03:20:42.737Z,78.00
2022-08-17T03:21:42.718Z,77.71
2022-08-17T03:22:42.659Z,78.67
2022-08-17T03:23:42.619Z,78.48
2022-08-17T03:24:42.583Z,78.19
2022-08-17T03:25:42.540Z,78.67
2022-08-17T03:26:42.496Z,78.48
2022-08-17T03:27:42.469Z,78.38
2022-08-17T03:28:42.438Z,78.54
2022-08-17T03:29:42.379Z,78.44
2022-08-17T03:30:42.347Z,78.54
2022-08-17T03:31:42.299Z,78.96
2022-08-17T03:32:42.295Z,79.41
2022-08-17T03:33:42.221Z,79.50
2022-08-17T03:34:42.203Z,79.60
2022-08-17T03:35:42.150Z,79.31
2022-08-17T03:36:42.100Z,79.31
2022-08-17T03:37:42.058Z,79.79
2022-08-17T03:38:42.025Z,79.31
2022-08-17T03:39:42.011Z,79.79
2022-08-17T03:40:57.030Z,79.31
2022-08-17T03:41:41.897Z,79.60
2022-08-17T03:42:41.858Z,79.50
2022-08-17T03:43:41.821Z,79.98
2022-08-17T03:44:41.782Z,80.46
2022-08-17T03:45:41.737Z,79.69
2022-08-17T03:46:41.713Z,80.27
2022-08-17T03:47:41.660Z,80.08
2022-08-17T03:48:41.622Z,80.18
2022-08-17T03:49:41.582Z,80.18
2022-08-17T03:50:41.543Z,80.04
2022-08-17T03:51:41.498Z,79.69
2022-08-17T03:52:41.492Z,80.27
2022-08-17T03:53:41.417Z,80.85
2022-08-17T03:54:41.380Z,80.46
2022-08-17T03:55:41.343Z,81.04
2022-08-17T03:56:41.297Z,80.66
2022-08-17T03:57:41.265Z,81.04
2022-08-17T03:58:41.232Z,80.56
2022-08-17T03:59:41.185Z,80.76
2022-08-17T04:00:41.164Z,81.33
2022-08-17T04:01:41.129Z,81.04
2022-08-17T04:02:41.061Z,80.56
2022-08-17T04:03:41.022Z,80.85
2022-08-17T04:04:40.981Z,81.29
2022-08-17T04:05:40.936Z,81.58
2022-08-17T04:06:40.934Z,81.58
2022-08-17T04:07:40.857Z,81.48
2022-08-17T04:08:40.815Z,81.39
2022-08-17T04:09:40.777Z,81.48
2022-08-17T04:10:45.042Z,81.20
2022-08-17T04:11:40.695Z,81.68
2022-08-17T04:12:40.672Z,82.26
2022-08-17T04:13:40.617Z,82.06
2022-08-17T04:14:51.785Z,82.45
2022-08-17T04:15:40.539Z,81.68
2022-08-17T04:16:40.497Z,82.26
2022-08-17T04:17:40.455Z,81.87
2022-08-17T04:18:40.478Z,81.77
2022-08-17T04:19:40.376Z,82.02
2022-08-17T04:20:40.360Z,82.45
2022-08-17T04:21:40.325Z,82.31
2022-08-17T04:22:40.256Z,82.12
2022-08-17T04:23:40.215Z,82.54
2022-08-17T04:24:40.173Z,82.98
2022-08-17T04:25:40.134Z,83.18
2022-08-17T04:26:54.209Z,82.83
2022-08-17T04:27:40.086Z,82.83
2022-08-17T04:28:40.027Z,82.74
2022-08-17T04:29:54.938Z,82.26
2022-08-17T04:30:39.948Z,82.16
2022-08-17T04:31:39.895Z,82.35
2022-08-17T04:33:05.147Z,82.35
2022-08-17T04:33:39.808Z,82.06
2022-08-17T04:34:39.770Z,82.35
2022-08-17T04:35:39.731Z,82.83
2022-08-17T04:36:39.713Z,83.03
2022-08-17T04:37:39.650Z,82.93
2022-08-17T04:38:39.616Z,82.83
2022-08-17T04:39:39.659Z,83.03
2022-08-17T04:40:39.532Z,83.03
2022-08-17T04:41:39.490Z,82.45
2022-08-17T04:42:39.474Z,82.35
2022-08-17T04:43:39.414Z,82.35
2022-08-17T04:44:39.366Z,82.29
2022-08-17T04:45:39.332Z,82.39
2022-08-17T04:46:39.287Z,82.39
2022-08-17T04:47:39.249Z,82.01
2022-08-17T04:48:39.395Z,82.59
2022-08-17T04:49:39.166Z,81.52
2022-08-17T04:50:39.126Z,81.33
2022-08-17T04:51:39.088Z,81.43
2022-08-17T04:52:54.088Z,81.33
2022-08-17T04:53:39.014Z,81.24
2022-08-17T04:54:38.976Z,81.52
2022-08-17T04:55:38.929Z,81.52
2022-08-17T04:56:38.889Z,81.27
2022-08-17T04:57:44.508Z,81.43
2022-08-17T04:58:38.813Z,81.24
2022-08-17T04:59:38.785Z,81.52
2022-08-17T05:00:38.731Z,81.62
2022-08-17T05:01:38.717Z,81.24
2022-08-17T05:02:38.649Z,81.33
2022-08-17T05:03:38.606Z,81.91
2022-08-17T05:04:38.590Z,82.01
2022-08-17T05:05:38.531Z,82.01
2022-08-17T05:06:38.487Z,82.10
2022-08-17T05:07:38.447Z,82.49
2022-08-17T05:08:38.407Z,81.72
2022-08-17T05:09:38.378Z,81.62
2022-08-17T05:10:45.120Z,81.62
2022-08-17T05:11:38.286Z,81.91
2022-08-17T05:12:38.248Z,82.10
2022-08-17T05:13:38.229Z,82.29
2022-08-17T05:14:38.165Z,82.20
2022-08-17T05:15:38.145Z,81.72
2022-08-17T05:16:38.084Z,81.91
2022-08-17T05:17:38.048Z,81.43
2022-08-17T05:18:38.004Z,81.72
2022-08-17T05:19:37.964Z,81.04
2022-08-17T05:20:37.930Z,80.94
2022-08-17T05:21:37.902Z,81.14
2022-08-17T05:22:37.852Z,80.94
2022-08-17T05:23:42.355Z,80.85
2022-08-17T05:24:42.698Z,80.56
2022-08-17T05:25:37.724Z,80.46
2022-08-17T05:26:37.703Z,81.14
2022-08-17T05:27:37.644Z,81.09
2022-08-17T05:28:37.621Z,80.69
2022-08-17T05:29:37.565Z,80.79
2022-08-17T05:30:37.560Z,80.69
2022-08-17T05:31:37.488Z,80.99
2022-08-17T05:32:40.187Z,80.69
2022-08-17T05:33:39.566Z,80.89
2022-08-17T05:34:37.368Z,80.60
2022-08-17T05:35:37.331Z,80.89
2022-08-17T05:36:43.460Z,80.60
2022-08-17T05:37:37.249Z,80.60
2022-08-17T05:38:37.207Z,81.18
2022-08-17T05:39:37.197Z,81.12
2022-08-17T05:40:37.130Z,80.64
2022-08-17T05:41:37.094Z,80.74
2022-08-17T05:42:37.066Z,80.83
2022-08-17T05:43:37.012Z,80.83
2022-08-17T05:44:36.994Z,80.54
2022-08-17T05:45:54.824Z,79.77
2022-08-17T05:46:36.902Z,79.77
2022-08-17T05:47:36.851Z,80.06
2022-08-17T05:48:39.287Z,80.10
2022-08-17T05:49:36.770Z,79.91
2022-08-17T05:50:36.745Z,80.10
2022-08-17T05:51:36.700Z,80.20
2022-08-17T05:52:36.655Z,79.91
2022-08-17T05:53:36.613Z,80.10
2022-08-17T05:54:36.576Z,80.49
2022-08-17T05:55:36.547Z,79.66
2022-08-17T05:56:36.494Z,79.17
2022-08-17T05:57:36.469Z,77.83
2022-08-17T05:58:36.416Z,76.95
2022-08-17T05:59:36.375Z,76.28
2022-08-17T06:03:47.096Z,75.41
2022-08-17T06:04:46.819Z,75.89
2022-08-17T06:05:46.907Z,76.57
2022-08-17T06:06:46.738Z,76.37
2022-08-17T06:07:46.919Z,77.15
2022-08-17T06:08:46.652Z,77.92
2022-08-17T06:09:46.728Z,78.41
2022-08-17T06:10:46.570Z,77.63
2022-08-17T06:11:46.541Z,77.83
2022-08-17T06:12:46.599Z,77.73
2022-08-17T06:13:46.456Z,77.73
2022-08-17T06:14:46.599Z,77.15
2022-08-17T06:15:46.621Z,77.34
2022-08-17T06:16:46.342Z,77.00
2022-08-17T06:17:46.376Z,77.00
2022-08-17T06:18:46.289Z,77.38
2022-08-17T06:19:46.400Z,77.38
2022-08-17T06:20:46.215Z,76.61
2022-08-17T06:21:46.150Z,76.80
2022-08-17T06:22:46.246Z,76.35
2022-08-17T06:23:46.227Z,75.78
2022-08-17T06:24:46.073Z,75.10
2022-08-17T06:25:46.033Z,74.71
2022-08-17T06:26:45.944Z,73.94
2022-08-17T06:27:45.910Z,72.72
2022-08-17T06:28:46.049Z,72.33
2022-08-17T06:29:45.835Z,72.72
2022-08-17T06:30:59.995Z,72.04
2022-08-17T06:31:45.753Z,72.27
2022-08-17T06:32:45.898Z,72.08
2022-08-17T06:33:45.673Z,72.66
2022-08-17T06:34:45.717Z,72.85
2022-08-17T06:35:45.686Z,72.46
2022-08-17T06:36:45.889Z,72.27
2022-08-17T06:37:45.520Z,71.50
2022-08-17T06:38:45.480Z,71.88
2022-08-17T06:39:45.608Z,71.98
2022-08-17T06:40:45.571Z,71.40
2022-08-17T06:41:45.365Z,71.30
2022-08-17T06:43:06.882Z,70.95
2022-08-17T06:43:47.917Z,71.34
2022-08-17T06:44:51.001Z,70.66
2022-08-17T06:45:45.340Z,70.56
2022-08-17T06:46:45.175Z,70.37
2022-08-17T06:47:45.150Z,70.18
2022-08-17T06:48:45.138Z,70.31
2022-08-17T06:49:45.058Z,69.43
2022-08-17T06:50:45.018Z,69.15
2022-08-17T06:51:45.178Z,69.05
2022-08-17T06:52:47.117Z,68.47
2022-08-17T06:53:44.989Z,68.08
2022-08-17T06:54:45.042Z,68.18
2022-08-17T06:55:44.831Z,68.79
2022-08-17T06:56:54.115Z,69.24
2022-08-17T06:57:44.748Z,68.89
2022-08-17T06:58:44.818Z,68.79
2022-08-17T06:59:55.924Z,68.30
2022-08-17T07:00:44.696Z,68.12
2022-08-17T07:01:44.838Z,68.12
2022-08-17T07:02:51.065Z,67.72
2022-08-17T07:03:44.521Z,67.63
2022-08-17T07:04:44.654Z,67.72
2022-08-17T07:05:44.447Z,68.02
2022-08-17T07:06:44.415Z,68.50
2022-08-17T07:07:44.468Z,68.02
2022-08-17T07:08:44.361Z,67.92
2022-08-17T07:09:44.483Z,67.44
2022-08-17T07:10:44.259Z,67.24
2022-08-17T07:11:44.300Z,65.98
2022-08-17T07:12:44.198Z,65.79
2022-08-17T07:13:44.309Z,65.79
2022-08-17T07:14:44.103Z,65.11
2022-08-17T07:15:44.132Z,64.62
2022-08-17T07:16:44.048Z,64.14
2022-08-17T07:17:47.845Z,63.95
2022-08-17T07:18:44.152Z,63.40
2022-08-17T07:19:43.917Z,62.91
2022-08-17T07:20:46.033Z,63.01
2022-08-17T07:21:43.842Z,63.20
2022-08-17T07:22:50.598Z,63.01
2022-08-17T07:23:43.766Z,63.78
2022-08-17T07:24:43.769Z,63.04
2022-08-17T07:25:43.727Z,63.04
2022-08-17T07:26:43.835Z,63.23
2022-08-17T07:27:43.682Z,62.07
2022-08-17T07:28:43.684Z,60.94
2022-08-17T07:29:43.539Z,60.64
2022-08-17T07:30:46.829Z,59.38
2022-08-17T07:31:43.465Z,59.67
2022-08-17T07:32:43.631Z,58.54
2022-08-17T07:33:43.387Z,58.25
2022-08-17T07:34:43.376Z,58.25
2022-08-17T07:35:43.923Z,57.18
2022-08-17T07:36:43.283Z,56.92
2022-08-17T07:37:43.521Z,56.24
2022-08-17T07:38:43.205Z,56.62
2022-08-17T07:39:58.822Z,55.39
2022-08-17T07:40:43.560Z,55.29
2022-08-17T07:41:58.092Z,55.29
2022-08-17T07:42:46.642Z,55.68
2022-08-17T07:43:43.112Z,55.88
2022-08-17T07:44:42.981Z,55.39
2022-08-17T07:45:42.947Z,54.90
2022-08-17T07:46:42.944Z,55.10
2022-08-17T07:47:43.020Z,54.42
2022-08-17T07:48:42.841Z,54.13
2022-08-17T07:49:42.925Z,53.96
2022-08-17T07:50:42.763Z,54.15
2022-08-17T07:51:42.726Z,53.57
2022-08-17T07:52:48.033Z,53.08
2022-08-17T07:53:42.660Z,52.89
2022-08-17T07:54:42.758Z,52.01
2022-08-17T07:55:42.579Z,52.14
2022-08-17T07:56:42.545Z,52.04
2022-08-17T07:57:42.589Z,52.23
2022-08-17T07:58:42.577Z,52.14
2022-08-17T07:59:43.421Z,52.33
2022-08-17T08:00:42.392Z,51.75
2022-08-17T08:01:42.605Z,51.36
2022-08-17T08:02:42.408Z,51.26
2022-08-17T08:03:42.412Z,50.78
2022-08-17T08:05:49.938Z,50.97
2022-08-17T08:06:42.241Z,50.87
2022-08-17T08:07:42.251Z,50.97
2022-08-17T08:08:42.121Z,50.97
2022-08-17T08:09:42.258Z,51.09
2022-08-17T08:10:42.807Z,50.09
2022-08-17T08:11:44.321Z,50.29
2022-08-17T08:12:42.008Z,49.99
2022-08-17T08:13:41.921Z,50.12
2022-08-17T08:14:42.082Z,50.12
2022-08-17T08:15:44.979Z,50.31
2022-08-17T08:16:41.917Z,49.63
2022-08-17T08:17:41.778Z,49.34
2022-08-17T08:18:54.224Z,49.24
2022-08-17T08:19:41.707Z,49.15
2022-08-17T08:20:52.266Z,49.07
2022-08-17T08:21:41.636Z,48.90
2022-08-17T08:22:41.727Z,48.12
2022-08-17T08:23:41.561Z,47.27
2022-08-17T08:24:41.541Z,46.51
2022-08-17T08:25:41.546Z,45.56
2022-08-17T08:26:41.461Z,44.92
2022-08-17T08:27:41.559Z,43.77
2022-08-17T08:28:41.384Z,42.71
2022-08-17T08:29:41.389Z,42.25
2022-08-17T08:30:41.326Z,40.41
2022-08-17T08:31:42.500Z,40.53
2022-08-17T08:32:41.236Z,40.16
2022-08-17T08:33:41.393Z,38.98
2022-08-17T08:35:01.658Z,38.70
2022-08-17T08:35:41.126Z,39.09
2022-08-17T08:37:14.954Z,38.72
2022-08-17T08:37:43.185Z,38.82
2022-08-17T08:38:41.020Z,37.76
2022-08-17T08:39:41.059Z,37.58
2022-08-17T08:40:40.947Z,37.19
2022-08-17T08:41:40.909Z,36.72
2022-08-17T08:42:40.872Z,36.32
2022-08-17T08:43:40.853Z,35.75
2022-08-17T08:44:59.675Z,35.47
2022-08-17T08:45:40.766Z,35.59
2022-08-17T08:46:40.753Z,34.80
2022-08-17T08:47:40.701Z,34.22
2022-08-17T08:48:55.879Z,34.53
2022-08-17T08:50:02.629Z,34.43
2022-08-17T08:50:40.594Z,33.94
2022-08-17T08:51:40.559Z,33.94
2022-08-17T08:52:40.552Z,33.26
2022-08-17T08:53:40.491Z,32.67
2022-08-17T08:54:40.454Z,32.59
2022-08-17T08:55:40.419Z,32.69
2022-08-17T08:56:46.316Z,32.59
2022-08-17T08:57:40.353Z,32.51
2022-08-17T08:58:41.602Z,32.01
2022-08-17T08:59:42.157Z,32.21
2022-08-17T09:00:40.252Z,31.83
2022-08-17T09:01:40.242Z,31.16
2022-08-17T09:02:40.188Z,30.98
2022-08-17T09:03:52.207Z,30.30
2022-08-17T09:04:56.146Z,29.71
2022-08-17T09:05:40.120Z,29.72
2022-08-17T09:06:40.247Z,29.23
2022-08-17T09:07:40.021Z,29.05
2022-08-17T09:08:39.987Z,28.86
2022-08-17T09:09:39.953Z,28.28
2022-08-17T09:10:39.927Z,27.77
2022-08-17T09:12:02.339Z,28.37
2022-08-17T09:12:39.865Z,28.16
2022-08-17T09:13:39.827Z,28.24
2022-08-17T09:14:45.256Z,28.74
2022-08-17T09:15:39.764Z,28.52
2022-08-17T09:16:39.730Z,29.10
2022-08-17T09:17:39.714Z,29.30
2022-08-17T09:19:03.171Z,29.38
2022-08-17T09:19:39.635Z,29.57
2022-08-17T09:20:39.610Z,29.47
2022-08-17T09:21:41.489Z,29.75
2022-08-17T09:22:39.546Z,29.66
2022-08-17T09:23:39.511Z,29.57
2022-08-17T09:24:39.485Z,29.38
2022-08-17T09:25:39.453Z,28.72
2022-08-17T09:26:39.429Z,28.34
2022-08-17T09:27:39.406Z,27.94
2022-08-17T09:28:39.361Z,27.17
2022-08-17T09:29:39.332Z,26.90
2022-08-17T09:30:39.324Z,26.81
2022-08-17T09:31:47.049Z,26.33
2022-08-17T09:32:39.244Z,26.35
2022-08-17T09:33:39.214Z,25.48
2022-08-17T09:34:39.182Z,25.27
2022-08-17T09:35:39.151Z,25.46
2022-08-17T09:36:39.157Z,25.66
2022-08-17T09:37:39.093Z,25.57
2022-08-17T09:38:39.063Z,25.76
2022-08-17T09:39:39.082Z,25.26
2022-08-17T09:40:39.011Z,25.45
2022-08-17T09:41:38.984Z,25.66
2022-08-17T09:42:38.973Z,25.65
2022-08-17T09:43:38.924Z,25.24
2022-08-17T09:44:38.896Z,25.65
2022-08-17T09:45:38.867Z,25.37
2022-08-17T09:46:39.050Z,25.18
2022-08-17T09:47:38.809Z,24.20
2022-08-17T09:48:38.803Z,23.91
2022-08-17T09:49:38.753Z,24.02
2022-08-17T09:51:04.094Z,23.81
2022-08-17T09:51:38.698Z,24.01
2022-08-17T09:52:38.673Z,23.91
2022-08-17T09:53:38.643Z,24.31
2022-08-17T09:54:39.919Z,24.00
2022-08-17T09:55:38.584Z,24.00
2022-08-17T09:56:41.118Z,24.01
2022-08-17T09:57:38.527Z,23.82
2022-08-17T09:58:38.504Z,23.52
2022-08-17T09:59:38.831Z,23.85
2022-08-17T10:00:38.645Z,23.07
2022-08-17T10:01:38.525Z,22.97
2022-08-17T10:02:38.391Z,22.18
2022-08-17T10:03:38.363Z,21.97
2022-08-17T10:04:38.343Z,22.05
2022-08-17T10:05:38.316Z,22.94
2022-08-17T10:06:38.319Z,22.84
2022-08-17T10:07:38.260Z,23.34
2022-08-17T10:08:38.246Z,23.13
2022-08-17T10:09:38.208Z,23.80
2022-08-17T10:10:38.179Z,24.19
2022-08-17T10:11:38.161Z,23.89
2022-08-17T10:12:38.123Z,23.48
2022-08-17T10:13:38.098Z,23.70
2022-08-17T10:14:44.522Z,22.83
2022-08-17T10:15:38.042Z,22.16
2022-08-17T10:16:38.025Z,21.48
2022-08-17T10:17:37.996Z,21.00
2022-08-17T10:18:37.960Z,21.03
2022-08-17T10:19:37.948Z,20.73
2022-08-17T10:20:37.909Z,19.95
2022-08-17T10:21:37.905Z,19.46
2022-08-17T10:22:38.261Z,18.97
2022-08-17T10:23:37.826Z,18.69
2022-08-17T10:24:37.802Z,18.30
2022-08-17T10:25:53.979Z,18.21
2022-08-17T10:26:55.335Z,17.19
2022-08-17T10:27:37.742Z,18.39
2022-08-17T10:28:37.706Z,18.39
2022-08-17T10:29:47.425Z,18.38
2022-08-17T10:30:37.647Z,18.47
2022-08-17T10:31:37.624Z,19.05
2022-08-17T10:32:37.596Z,19.83
2022-08-17T10:33:37.587Z,19.81
2022-08-17T10:34:41.028Z,19.80
2022-08-17T10:35:37.520Z,20.79
2022-08-17T10:36:37.494Z,20.78
2022-08-17T10:37:37.491Z,21.16
2022-08-17T10:38:37.444Z,21.76
2022-08-17T10:39:52.609Z,21.55
2022-08-17T10:40:37.389Z,21.25
2022-08-17T10:41:40.404Z,21.54
2022-08-17T10:42:37.334Z,21.64
2022-08-17T10:43:37.327Z,22.13
2022-08-17T10:44:41.106Z,22.02
2022-08-17T10:45:37.250Z,22.60
2022-08-17T10:46:37.222Z,23.59
2022-08-17T10:47:54.714Z,23.10
2022-08-17T10:48:37.171Z,23.58
2022-08-17T10:49:37.156Z,23.69
2022-08-17T10:50:37.131Z,23.10
2022-08-17T10:51:37.081Z,23.01
2022-08-17T10:52:37.055Z,23.11
2022-08-17T10:53:37.037Z,23.02
2022-08-17T10:54:37.002Z,22.93
2022-08-17T10:55:36.969Z,22.74
2022-08-17T10:56:37.043Z,21.46
2022-08-17T10:57:36.916Z,21.77
2022-08-17T10:58:36.889Z,21.48
2022-08-17T10:59:36.860Z,21.69
2022-08-17T11:00:36.905Z,21.00
2022-08-17T11:01:36.812Z,20.31
2022-08-17T11:02:36.801Z,19.92
2022-08-17T11:03:36.761Z,19.93
2022-08-17T11:04:36.730Z,19.85
2022-08-17T11:05:40.193Z,19.45
2022-08-17T11:06:36.676Z,19.16
2022-08-17T11:07:36.661Z,18.66
2022-08-17T11:08:36.661Z,19.17
2022-08-17T11:09:36.596Z,18.38
2022-08-17T11:10:36.572Z,18.49
2022-08-17T11:11:36.551Z,18.21
2022-08-17T11:12:36.526Z,18.01
2022-08-17T11:13:36.497Z,18.12
2022-08-17T11:14:36.505Z,17.30
2022-08-17T11:15:36.449Z,17.59
2022-08-17T11:16:36.425Z,18.59
2022-08-17T11:17:36.397Z,18.39
2022-08-17T11:18:36.382Z,18.19
2022-08-17T11:19:36.348Z,17.99
2022-08-17T11:20:36.348Z,18.08
2022-08-17T11:21:36.299Z,18.19
2022-08-17T11:22:36.272Z,17.98
2022-08-17T11:23:36.248Z,18.08
2022-08-17T11:24:36.231Z,18.19
2022-08-17T11:25:36.203Z,17.31
2022-08-17T11:26:36.191Z,17.01
2022-08-17T11:27:36.229Z,17.00
2022-08-17T11:28:36.131Z,17.01
2022-08-17T11:29:36.102Z,17.01
2022-08-17T11:30:36.078Z,16.31
2022-08-17T11:31:38.539Z,16.62
2022-08-17T11:32:36.028Z,16.83
2022-08-17T11:33:36.877Z,16.33
2022-08-17T11:34:35.984Z,16.53
2022-08-17T11:35:35.958Z,16.73
2022-08-17T11:36:35.936Z,16.82
2022-08-17T11:37:35.949Z,16.62
2022-08-17T11:38:35.882Z,16.61
2022-08-17T11:39:35.923Z,16.63
2022-08-17T11:40:35.840Z,16.52
2022-08-17T11:41:35.813Z,16.72
2022-08-17T11:42:35.793Z,16.32
2022-08-17T11:43:39.516Z,16.83
2022-08-17T11:44:35.742Z,16.03
2022-08-17T11:45:35.722Z,15.73
2022-08-17T11:46:35.695Z,16.23
2022-08-17T11:47:35.675Z,16.33
2022-08-17T11:48:35.817Z,16.33
2022-08-17T11:49:35.639Z,16.33
2022-08-17T11:50:35.601Z,16.22
2022-08-17T11:51:35.577Z,16.42
2022-08-17T11:52:35.559Z,16.82
2022-08-17T11:53:35.532Z,17.01
2022-08-17T11:54:35.505Z,16.80
2022-08-17T11:55:38.542Z,16.39
2022-08-17T11:56:35.454Z,17.17
2022-08-17T11:57:35.438Z,17.07
2022-08-17T11:58:35.402Z,17.25
2022-08-17T11:59:35.396Z,17.65
2022-08-17T12:00:35.354Z,17.94
2022-08-17T12:01:35.357Z,18.24
2022-08-17T12:02:35.394Z,18.43
2022-08-17T12:03:35.286Z,18.33
2022-08-17T12:04:35.366Z,18.54
2022-08-17T12:05:35.236Z,18.05
2022-08-17T12:06:35.208Z,17.65
2022-08-17T12:07:35.202Z,17.97
2022-08-17T12:08:35.160Z,17.38
2022-08-17T12:09:35.133Z,17.39
2022-08-17T12:10:35.116Z,17.49
2022-08-17T12:11:58.616Z,16.88
2022-08-17T12:12:35.090Z,16.98
2022-08-17T12:13:39.487Z,17.07
2022-08-17T12:15:07.999Z,16.97
2022-08-17T12:15:34.980Z,16.87
2022-08-17T12:16:34.964Z,17.16
2022-08-17T12:17:41.107Z,16.87
2022-08-17T12:18:35.012Z,16.96
2022-08-17T12:19:34.886Z,17.46
2022-08-17T12:20:34.859Z,17.16
2022-08-17T12:21:34.836Z,16.87
2022-08-17T12:22:34.805Z,16.69
2022-08-17T12:23:34.783Z,16.79
2022-08-17T12:24:34.773Z,16.79
2022-08-17T12:25:34.737Z,16.71
2022-08-17T12:26:34.709Z,16.71
2022-08-17T12:28:04.513Z,16.21
2022-08-17T12:28:34.655Z,15.62
2022-08-17T12:29:38.463Z,15.53
2022-08-17T12:30:34.623Z,15.42
2022-08-17T12:31:34.586Z,15.53
2022-08-17T12:32:34.559Z,15.54
2022-08-17T12:33:34.531Z,15.65
2022-08-17T12:34:34.510Z,15.56
2022-08-17T12:35:34.484Z,15.37
2022-08-17T12:36:34.480Z,14.77
2022-08-17T12:37:34.436Z,14.58
2022-08-17T12:38:34.450Z,14.68
2022-08-17T12:39:34.454Z,14.48
2022-08-17T12:40:34.364Z,13.67
2022-08-17T12:41:34.354Z,13.87
2022-08-17T12:42:34.315Z,14.48
2022-08-17T12:43:34.301Z,14.57
2022-08-17T12:44:34.280Z,14.36
2022-08-17T12:45:34.249Z,14.75
2022-08-17T12:46:34.241Z,14.93
2022-08-17T12:47:34.197Z,15.72
2022-08-17T12:48:34.182Z,15.89
2022-08-17T12:49:34.149Z,16.19
2022-08-17T12:50:34.134Z,16.59
2022-08-17T12:51:34.097Z,16.39
2022-08-17T12:52:34.109Z,16.50
2022-08-17T12:53:34.050Z,16.41
2022-08-17T12:54:34.026Z,15.82
2022-08-17T12:55:34.114Z,15.63
2022-08-17T12:56:33.974Z,15.73